Flight Track Log - Related Links

Times and Time Zones

All times are in EST time to prevent confusion due to time zone crossing. See the DAL5173 flight status page for this flight to view local times or setup timezone preferences in your user account.

Time Position Orientation Groundspeed Altitude Reporting Facility
EST Latitude Longitude Course Direction KTS MPH feet Rate Location/Type
Tue 12:38:09 PM 42.9500 -71.4167 26° Northeast 157 181 1,300  Level KA90
Tue 12:39:03 PM 43.0000 -71.3833 26° Northeast 203 234 3,200 2,074 Climbing KA90
Tue 12:40:51 PM 43.0831 -71.4464 331° Northwest 262 302 6,900 2,414 Climbing Boston Center
Tue 12:41:52 PM 43.1300 -71.5236 310° West 248 285 10,000 2,361 Climbing Boston Center
Tue 12:42:53 PM 43.1342 -71.6192 273° West 256 295 11,700 1,984 Climbing Boston Center
Tue 12:43:56 PM 43.1367 -71.7258 272° West 279 321 14,100 2,439 Climbing Boston Center
Tue 12:44:56 PM 43.1394 -71.8289 272° West 273 314 16,700 2,033 Climbing Boston Center
Tue 12:45:57 PM 43.1417 -71.9375 272° West 268 308 18,200 1,415 Climbing Boston Center
Tue 12:46:59 PM 43.1425 -72.0258 271° West 275 316 19,600 1,463 Climbing Boston Center
Tue 12:48:00 PM 43.1442 -72.1297 271° West 274 315 21,200 1,328 Climbing Boston Center
Tue 12:49:01 PM 43.1478 -72.2367 273° West 281 323 22,300 1,230 Climbing Boston Center
Tue 12:50:02 PM 43.1497 -72.3661 271° West 285 328 23,700 843 Climbing Boston Center
Tue 12:51:02 PM 43.1514 -72.4789 271° West 294 338 24,000 146 Climbing Boston Center
Tue 12:52:05 PM 43.1544 -72.5969 272° West 309 356 24,000  Level Boston Center
Tue 12:53:06 PM 43.1569 -72.7158 272° West 313 360 24,000  Level Boston Center
Tue 12:54:07 PM 43.1578 -72.8344 271° West 313 360 24,000  Level Boston Center
Tue 12:55:07 PM 43.1606 -72.9531 272° West 314 361 24,000  Level Boston Center
Tue 12:56:07 PM 43.1619 -73.0747 271° West 318 366 24,000  Level Boston Center
Tue 12:57:11 PM 43.1633 -73.2033 271° West 329 379 24,000  Level Boston Center
Tue 12:58:10 PM 43.1653 -73.3361 271° West 343 395 24,000  Level Boston Center
Tue 12:59:10 PM 43.1669 -73.4947 271° West 358 412 24,000  Level Boston Center
Tue 01:00:12 PM 43.1675 -73.6311 270° West 360 414 24,000  Level Boston Center
Tue 01:01:15 PM 43.1694 -73.7658 271° West 358 412 24,000  Level Boston Center
Tue 01:02:16 PM 43.1703 -73.9006 271° West 354 407 24,000  Level Boston Center
Tue 01:03:17 PM 43.1717 -74.0342 271° West 352 405 24,000  Level Boston Center
Tue 01:04:18 PM 43.1719 -74.1681 270° West 351 404 24,000  Level Boston Center
Tue 01:05:19 PM 43.1717 -74.3003 270° West 348 400 24,000  Level Boston Center
Tue 01:06:19 PM 43.1725 -74.4625 270° West 352 405 24,000  Level Boston Center
Tue 01:07:20 PM 43.1722 -74.5953 270° West 349 402 24,000  Level Boston Center
Tue 01:08:20 PM 43.1719 -74.7292 270° West 351 404 24,000  Level Boston Center
Tue 01:09:22 PM 43.1719 -74.8633 270° West 351 404 24,000  Level Boston Center
Tue 01:10:22 PM 43.1711 -74.9967 270° West 349 402 24,000  Level Boston Center
Tue 01:11:25 PM 43.1703 -75.1317 270° West 350 403 24,000  Level Boston Center
Tue 01:12:26 PM 43.1697 -75.2664 270° West 350 403 24,000  Level Boston Center
Tue 01:13:27 PM 43.1692 -75.4003 270° West 348 400 24,000  Level Boston Center
Tue 01:14:28 PM 43.1678 -75.5342 269° West 349 402 24,000  Level Boston Center
Tue 01:15:29 PM 43.1669 -75.6661 270° West 347 399 24,000  Level Boston Center
Tue 01:16:30 PM 43.1658 -75.7981 269° West 347 399 24,000  Level Boston Center
Tue 01:17:33 PM 43.1644 -75.9306 269° West 347 399 24,000  Level Boston Center
Tue 01:18:34 PM 43.1628 -76.0625 269° West 348 400 24,000  Level Boston Center
Tue 01:19:34 PM 43.1611 -76.1947 269° West 348 400 24,000  Level Boston Center
Tue 01:20:35 PM 43.1522 -76.3250 265° West 346 398 24,000  Level Boston Center
Tue 01:21:36 PM 43.1375 -76.4817 263° West 346 398 24,000  Level Boston Center
Tue 01:22:37 PM 43.1256 -76.6125 263° West 347 399 24,000  Level Boston Center
Tue 01:23:37 PM 43.1139 -76.7469 263° West 347 399 24,000  Level Boston Center
Tue 01:24:41 PM 43.1031 -76.8778 264° West 347 399 24,000  Level Boston Center
Tue 01:25:41 PM 43.0897 -77.0075 262° West 346 398 24,000  Level Boston Center
Tue 01:26:42 PM 43.0786 -77.1400 263° West 352 405 24,000  Level Boston Center
Tue 01:27:42 PM 43.0661 -77.2697 263° West 348 400 24,000  Level Boston Center
Tue 01:28:46 PM 43.0539 -77.3967 263° West 339 390 24,000  Level Boston Center
Tue 01:29:46 PM 43.0428 -77.5194 263° West 332 382 24,000  Level Boston Center
Tue 01:31:11 PM 43.0236 -77.7125 262° West 325 374 24,000  Level Cleveland Center
Tue 01:32:12 PM 43.0114 -77.8342 262° West 326 375 24,000  Level Cleveland Center
Tue 01:33:14 PM 43.0000 -77.9522 263° West 319 367 24,000  Level Cleveland Center
Tue 01:34:16 PM 42.9889 -78.0625 262° West 301 346 24,000  Level Cleveland Center
Tue 01:35:18 PM 42.9781 -78.1744 263° West 299 344 24,000  Level Cleveland Center
Tue 01:36:20 PM 42.9658 -78.2864 262° West 300 345 24,000  Level Cleveland Center
Tue 01:37:22 PM 42.9514 -78.4217 262° West 300 345 24,000  Level Cleveland Center
Tue 01:38:24 PM 42.9394 -78.5353 262° West 303 349 24,000  Level Cleveland Center
Tue 01:39:25 PM 42.9278 -78.6489 262° West 303 349 24,000  Level Cleveland Center
Tue 01:40:27 PM 42.9117 -78.7633 259° West 308 354 24,000  Level Cleveland Center
Tue 01:41:29 PM 42.8958 -78.8767 259° West 306 352 24,000  Level Cleveland Center
Tue 01:42:31 PM 42.8786 -78.9914 258° West 309 356 24,000  Level Cleveland Center
Tue 01:43:33 PM 42.8578 -79.1300 258° West 312 359 24,000  Level Cleveland Center
Tue 01:44:34 PM 42.8414 -79.2442 259° West 310 357 24,000  Level Cleveland Center
Tue 01:45:36 PM 42.8239 -79.3583 258° West 309 356 24,000  Level Cleveland Center
Tue 01:46:38 PM 42.8081 -79.4717 259° West 307 353 24,000  Level Cleveland Center
Tue 01:47:40 PM 42.7911 -79.5836 258° West 304 350 24,000  Level Cleveland Center
Tue 01:48:42 PM 42.7733 -79.6956 258° West 303 349 24,000  Level Cleveland Center
Tue 01:49:43 PM 42.7536 -79.8308 259° West 304 350 24,000  Level Cleveland Center
Tue 01:50:45 PM 42.7467 -79.9456 265° West 307 353 24,000  Level Cleveland Center
Tue 01:51:47 PM 42.7428 -80.0489 267° West 311 358 24,000  Level Cleveland Center
Tue 01:52:48 PM 42.7361 -80.1836 266° West 303 349 24,000  Level Cleveland Center
Tue 01:53:50 PM 42.7319 -80.3003 267° West 307 353 24,000  Level Cleveland Center
Tue 01:54:52 PM 42.7264 -80.4147 266° West 301 346 24,000  Level Cleveland Center
Tue 01:55:53 PM 42.7217 -80.5294 267° West 302 348 24,000  Level Cleveland Center
Tue 01:56:55 PM 42.7167 -80.6431 267° West 301 346 24,000  Level Cleveland Center
Tue 01:57:57 PM 42.7119 -80.7581 267° West 303 349 24,000  Level Cleveland Center
Tue 01:58:59 PM 42.7067 -80.8703 266° West 297 342 24,000  Level Cleveland Center
Tue 02:00:01 PM 42.6967 -80.9789 263° West 291 335 24,000  Level Cleveland Center
Tue 02:01:02 PM 42.6833 -81.0881 261° West 291 335 24,000  Level Cleveland Center
Tue 02:02:04 PM 42.6669 -81.2317 261° West 321 369 24,000  Level Cleveland Center
Tue 02:03:06 PM 42.6528 -81.3528 261° West 323 372 24,000  Level Cleveland Center
Tue 02:04:08 PM 42.6394 -81.4742 262° West 323 372 24,000  Level Cleveland Center
Tue 02:05:09 PM 42.6244 -81.5964 261° West 324 373 24,000 -683 Level Cleveland Center
Tue 02:06:11 PM 42.6108 -81.7147 261° West 318 366 22,600 -1,403 Descending Cleveland Center
Tue 02:07:13 PM 42.5964 -81.8336 261° West 319 367 21,100 -1,452 Descending Cleveland Center
Tue 02:08:15 PM 42.5822 -81.9528 261° West 320 368 19,600 -1,463 Descending Cleveland Center
Tue 02:09:16 PM 42.5681 -82.0714 261° West 322 371 18,100 -1,463 Descending Cleveland Center
Tue 02:10:18 PM 42.5500 -82.2083 260° West 310 357 16,600 -1,500 Descending Cleveland Center
Tue 02:11:20 PM 42.5353 -82.3283 261° West 322 371 15,000 -1,667 Descending Cleveland Center
Tue 02:11:30 PM 42.5297 -82.3542 254° West 323 372 14,600 -1,645 Descending Cleveland Center
Tue 02:12:22 PM 42.5200 -82.4475 262° West 323 372 13,300 -1,595 Descending Cleveland Center
Tue 02:12:49 PM 42.5128 -82.5075 261° West 316 364 12,500 -1,279 Descending Cleveland Center
Tue 02:13:23 PM 42.5039 -82.5617 257° West 315 362 12,000 -1,200 Descending Cleveland Center
Tue 02:13:44 PM 42.4847 -82.6086 241° Southwest 304 350 11,400 -1,452 Descending Cleveland Center
Tue 02:14:25 PM 42.4664 -82.6608 245° Southwest 301 346 10,500 -1,636 Descending Cleveland Center
Tue 02:14:39 PM 42.4553 -82.6953 246° West 269 310 9,900 -1,452 Descending Cleveland Center
Tue 02:15:27 PM 42.4397 -82.7519 250° West 273 314 9,000 -1,400 Descending Cleveland Center
Tue 02:15:39 PM 42.4406 -82.7867 272° West 245 282 8,500 -1,770 Descending Cleveland Center
Tue 02:16:28 PM 42.4361 -82.8436 264° West 248 285 7,200 -1,355 Descending Cleveland Center
Tue 02:16:41 PM 42.4294 -82.8783 255° West 253 291 7,100 -194 Descending Cleveland Center
Tue 02:17:30 PM 42.4153 -82.9586 257° West 261 300 7,000 -100 Descending Cleveland Center
Tue 02:17:41 PM 42.4117 -82.9778 256° West 265 305 7,000 -677 Level Cleveland Center
Tue 02:18:32 PM 42.3975 -83.0561 256° West 268 308 6,300 -984 Descending Cleveland Center
Tue 02:18:42 PM 42.3939 -83.0744 255° West 270 311 6,000 -1,548 Descending Cleveland Center
Tue 02:19:34 PM 42.3797 -83.1547 257° West 270 311 4,700 -1,672 Descending Cleveland Center
Tue 02:19:43 PM 42.3736 -83.1789 251° West 268 308 4,300 -787 Descending Cleveland Center
Tue 02:20:35 PM 42.3489 -83.2392 241° Southwest 256 295 3,900 -787 Descending Cleveland Center
Tue 02:20:44 PM 42.3322 -83.2522 210° Southwest 230 265 3,500 -1,258 Descending Cleveland Center
Tue 02:21:37 PM 42.2944 -83.2800 209° Southwest 236 272 2,600 -1,200 Descending Cleveland Center
Tue 02:21:39 PM 42.2858 -83.2853 204° Southwest 183 211 2,400 -968 Descending Cleveland Center
Tue 02:22:39 PM 42.2553 -83.3081 209° Southwest 185 213 1,600 -885 Descending Cleveland Center
Tue 02:22:40 PM 42.2481 -83.3139 211° Southwest 153 176 1,500 -290 Descending Cleveland Center
Tue 02:23:41 PM 42.2114 -83.3406 208° Southwest 173 199 1,300 -197 Descending Cleveland Center
Tue 02:25:00 PM 42.2000 -83.3500 246° West  Level FlightAware Approximate
Tue 02:32:00 PM 42.2124 -83.3534 246° West  Level Estimated

Login

Don't have an account? Register now (free) for customized features, flight alerts, and more!